Time;durP1;ratioP1;P1;durP2;ratioP2;P2;SDS_P1;SDS_P2;PMS_P1;PMS_P2;Temp;Humidity;BMP_temperature;BMP_pressure;BME280_temperature;BME280_humidity;BME280_pressure;Samples;Min_cycle;Max_cycle;Signal;HPM_P1;HPM_P2
2022/04/07 00:02:26;;;;;;;14.37;7.13;;;;;;;4.92;100.00;99315.79;1695336;84;21055;-68
2022/04/07 00:04:54;;;;;;;14.13;7.50;;;;;;;4.91;100.00;99312.78;1678877;84;21083;-67
2022/04/07 00:07:21;;;;;;;16.37;7.80;;;;;;;4.89;100.00;99305.41;1698544;84;21079;-68
2022/04/07 00:09:50;;;;;;;14.87;7.37;;;;;;;4.85;100.00;99297.30;1681024;84;21000;-68
2022/04/07 00:12:17;;;;;;;15.20;7.10;;;;;;;4.81;100.00;99290.08;1679157;84;21512;-68
2022/04/07 00:14:44;;;;;;;15.87;7.33;;;;;;;4.78;100.00;99293.55;1699623;84;21007;-68
2022/04/07 00:17:11;;;;;;;17.27;8.13;;;;;;;4.69;100.00;99289.95;1685592;84;21062;-68
2022/04/07 00:19:38;;;;;;;14.77;7.60;;;;;;;4.64;100.00;99299.80;1684324;85;21090;-67
2022/04/07 00:22:07;;;;;;;19.30;7.60;;;;;;;4.61;100.00;99297.41;1709182;84;21058;-68
2022/04/07 00:24:34;;;;;;;12.50;7.10;;;;;;;4.56;100.00;99296.52;1714027;83;21053;-68
2022/04/07 00:27:01;;;;;;;16.90;7.70;;;;;;;4.54;100.00;99294.48;1742054;81;21034;-68
2022/04/07 00:29:30;;;;;;;16.80;8.20;;;;;;;4.52;100.00;99286.27;1714118;84;21061;-67
2022/04/07 00:32:03;;;;;;;14.33;7.43;;;;;;;4.49;100.00;99294.59;1716158;82;21042;-67
2022/04/07 00:34:28;;;;;;;17.50;9.10;;;;;;;4.45;100.00;99296.73;1718080;81;21062;-67
2022/04/07 00:36:55;;;;;;;14.93;8.37;;;;;;;4.40;100.00;99277.59;1743077;82;22158;-67
2022/04/07 00:39:22;;;;;;;16.00;8.63;;;;;;;4.36;100.00;99271.70;1790232;79;21039;-67
2022/04/07 00:41:51;;;;;;;17.47;7.83;;;;;;;4.34;100.00;99276.87;1750872;81;21094;-69
2022/04/07 00:44:22;;;;;;;16.90;8.23;;;;;;;4.29;100.00;99271.96;1754040;81;21086;-69
2022/04/07 00:46:50;;;;;;;18.20;8.53;;;;;;;4.25;100.00;99265.70;1750030;82;21043;-67
2022/04/07 00:49:17;;;;;;;17.10;8.97;;;;;;;4.21;100.00;99262.98;1739787;81;21475;-68
2022/04/07 00:51:45;;;;;;;17.47;8.50;;;;;;;4.15;100.00;99260.42;1740303;82;21508;-66
2022/04/07 00:54:12;;;;;;;21.17;8.93;;;;;;;4.11;100.00;99248.34;1750172;80;20994;-67
2022/04/07 00:56:41;;;;;;;18.63;9.03;;;;;;;4.05;100.00;99247.58;1758157;80;21061;-67
2022/04/07 00:59:08;;;;;;;17.80;8.90;;;;;;;4.02;100.00;99247.88;1759376;80;20997;-68
2022/04/07 01:01:35;;;;;;;18.47;8.57;;;;;;;3.98;100.00;99245.52;1754559;80;21007;-68
2022/04/07 01:04:02;;;;;;;16.77;9.17;;;;;;;3.95;100.00;99244.97;1752495;80;21014;-68
2022/04/07 01:06:30;;;;;;;20.47;9.20;;;;;;;3.91;100.00;99232.39;1779251;80;21581;-68
2022/04/07 01:08:58;;;;;;;18.30;9.03;;;;;;;3.88;100.00;99230.00;1782382;80;21022;-67
2022/04/07 01:11:26;;;;;;;17.03;8.77;;;;;;;3.86;100.00;99220.42;1759512;80;21483;-67
2022/04/07 01:13:53;;;;;;;17.13;9.00;;;;;;;3.82;100.00;99214.53;1755388;80;21522;-68
2022/04/07 01:16:25;;;;;;;16.20;8.90;;;;;;;3.78;100.00;99215.33;1759580;80;21025;-67
2022/04/07 01:18:52;;;;;;;17.47;8.93;;;;;;;3.75;100.00;99214.30;1754708;82;21049;-66
2022/04/07 01:21:19;;;;;;;19.83;9.67;;;;;;;3.72;100.00;99205.70;1729184;82;21460;-66
2022/04/07 01:23:55;;;;;;;15.17;9.47;;;;;;;3.66;100.00;99200.45;1754426;82;21049;-67
2022/04/07 01:26:23;;;;;;;17.70;10.10;;;;;;;3.62;100.00;99193.73;1748827;81;21034;-66
2022/04/07 01:28:52;;;;;;;20.03;9.67;;;;;;;3.61;100.00;99192.03;1753896;82;21092;-67
2022/04/07 01:31:19;;;;;;;20.03;9.60;;;;;;;3.60;100.00;99179.17;1747141;82;21073;-67
2022/04/07 01:33:46;;;;;;;17.63;9.80;;;;;;;3.63;100.00;99158.00;1744767;82;21519;-68
2022/04/07 01:36:13;;;;;;;19.03;10.73;;;;;;;3.62;100.00;99146.95;1744717;81;21054;-67
2022/04/07 01:38:41;;;;;;;18.23;10.80;;;;;;;3.64;100.00;99140.12;1757371;81;21085;-67
2022/04/07 01:41:08;;;;;;;21.63;12.50;;;;;;;3.63;100.00;99137.95;1749079;82;21061;-67
2022/04/07 01:43:38;;;;;;;22.73;13.87;;;;;;;3.57;100.00;99127.84;1748716;82;21073;-67
2022/04/07 01:46:07;;;;;;;26.53;15.40;;;;;;;3.51;100.00;99123.09;1724833;82;21068;-67
2022/04/07 01:48:35;;;;;;;24.63;14.40;;;;;;;3.37;100.00;99127.09;1720894;81;20982;-68
2022/04/07 01:51:03;;;;;;;23.13;14.17;;;;;;;3.28;100.00;99126.64;1748453;82;21175;-66
2022/04/07 01:53:30;;;;;;;25.67;14.30;;;;;;;3.26;100.00;99117.44;1720277;82;21179;-67
2022/04/07 01:55:58;;;;;;;22.83;13.13;;;;;;;3.25;100.00;99113.57;1737017;82;21130;-67
2022/04/07 01:58:26;;;;;;;26.00;15.47;;;;;;;3.24;100.00;99110.06;1725335;83;21030;-67
2022/04/07 02:00:54;;;;;;;24.87;14.60;;;;;;;3.22;100.00;99114.69;1723169;82;21069;-67
2022/04/07 02:03:22;;;;;;;26.37;15.63;;;;;;;3.18;100.00;99110.14;1694054;84;21106;-68
2022/04/07 02:05:50;;;;;;;26.43;16.23;;;;;;;3.19;100.00;99111.83;1714848;83;21041;-68
2022/04/07 02:08:17;;;;;;;26.47;16.67;;;;;;;3.16;100.00;99128.65;1723171;83;21421;-67
2022/04/07 02:10:46;;;;;;;25.07;16.03;;;;;;;3.11;100.00;99121.56;1696099;83;21565;-67
2022/04/07 02:13:16;;;;;;;26.37;15.13;;;;;;;3.12;100.00;99117.92;1696881;83;21081;-67
2022/04/07 02:15:45;;;;;;;26.23;16.03;;;;;;;3.08;100.00;99128.52;1728877;81;21089;-67
2022/04/07 02:18:12;;;;;;;24.40;15.13;;;;;;;3.04;100.00;99129.30;1725009;81;21026;-68
2022/04/07 02:20:42;;;;;;;26.47;16.27;;;;;;;3.05;100.00;99117.65;1748655;81;21129;-66
2022/04/07 02:23:09;;;;;;;26.03;16.30;;;;;;;3.06;100.00;99113.97;1729073;81;21561;-69
2022/04/07 02:25:36;;;;;;;26.20;16.10;;;;;;;3.06;100.00;99106.46;1726568;81;21502;-67
2022/04/07 02:28:04;;;;;;;26.53;15.97;;;;;;;3.07;100.00;99103.65;1757944;81;21523;-68
2022/04/07 02:30:31;;;;;;;28.30;17.00;;;;;;;3.06;100.00;99091.77;1727483;81;21604;-67
2022/04/07 02:32:59;;;;;;;25.77;16.33;;;;;;;3.11;100.00;99094.34;1729062;81;20994;-67
2022/04/07 02:35:26;;;;;;;27.93;16.70;;;;;;;3.13;100.00;99090.20;1725980;81;21058;-67
2022/04/07 02:37:53;;;;;;;27.03;16.43;;;;;;;3.16;100.00;99090.74;1727272;82;21546;-67
2022/04/07 02:40:20;;;;;;;27.90;17.23;;;;;;;3.20;100.00;99085.45;1756173;81;21529;-66
2022/04/07 02:42:47;;;;;;;26.93;17.00;;;;;;;3.21;100.00;99068.95;1726505;81;21186;-67
2022/04/07 02:45:14;;;;;;;27.90;17.77;;;;;;;3.21;100.00;99064.44;1756507;81;22168;-68
2022/04/07 02:47:41;;;;;;;28.43;18.00;;;;;;;3.19;100.00;99065.08;1725415;81;21041;-67
2022/04/07 02:50:09;;;;;;;29.63;18.10;;;;;;;3.19;100.00;99051.72;1723739;81;21535;-68
2022/04/07 02:52:36;;;;;;;29.47;18.27;;;;;;;3.19;100.00;99058.91;1756701;81;21497;-68
2022/04/07 02:55:06;;;;;;;27.90;18.40;;;;;;;3.22;100.00;99054.58;1738481;80;21054;-68
2022/04/07 02:57:34;;;;;;;29.53;17.90;;;;;;;3.25;100.00;99056.13;1768467;80;21045;-68
2022/04/07 03:00:03;;;;;;;27.83;18.50;;;;;;;3.23;100.00;99048.26;1785824;80;21044;-68
2022/04/07 03:02:31;;;;;;;27.80;18.07;;;;;;;3.24;100.00;99041.94;1787515;80;21005;-68
2022/04/07 03:04:58;;;;;;;28.50;18.17;;;;;;;3.27;100.00;99039.45;1787404;80;21120;-67
2022/04/07 03:07:27;;;;;;;26.23;16.77;;;;;;;3.26;100.00;99038.63;1781412;80;21124;-67
2022/04/07 03:09:54;;;;;;;26.17;17.77;;;;;;;3.26;100.00;99029.27;1790221;80;21049;-67
2022/04/07 03:12:21;;;;;;;29.03;18.07;;;;;;;3.27;100.00;99030.93;1787792;80;21017;-67
2022/04/07 03:14:49;;;;;;;29.87;18.73;;;;;;;3.30;100.00;99029.30;1786059;80;21030;-67
2022/04/07 03:17:16;;;;;;;29.33;18.60;;;;;;;3.29;100.00;99032.95;1754444;80;21065;-68
2022/04/07 03:19:45;;;;;;;28.97;17.87;;;;;;;3.28;100.00;99033.96;1756063;80;21518;-68
2022/04/07 03:22:12;;;;;;;26.50;17.60;;;;;;;3.33;100.00;99029.48;1756642;80;21084;-67
2022/04/07 03:24:40;;;;;;;28.93;18.63;;;;;;;3.36;100.00;99029.20;1786595;80;21073;-67
2022/04/07 03:27:09;;;;;;;31.20;18.77;;;;;;;3.34;100.00;99024.00;1787848;80;21099;-67
2022/04/07 03:29:36;;;;;;;27.00;18.27;;;;;;;3.37;100.00;99021.54;1787658;80;21135;-69
2022/04/07 03:32:05;;;;;;;27.97;18.03;;;;;;;3.36;100.00;99018.00;1789101;80;21061;-69
2022/04/07 03:34:33;;;;;;;30.23;18.53;;;;;;;3.40;100.00;99025.25;1755936;80;21061;-67
2022/04/07 03:37:01;;;;;;;28.53;19.07;;;;;;;3.42;100.00;99024.61;1786135;80;20997;-68
2022/04/07 03:39:28;;;;;;;28.80;18.63;;;;;;;3.46;100.00;99016.63;1779063;80;21567;-66
2022/04/07 03:41:55;;;;;;;28.40;18.10;;;;;;;3.48;100.00;99023.16;1784548;80;21506;-67
2022/04/07 03:44:22;;;;;;;30.53;20.00;;;;;;;3.47;100.00;99025.00;1757296;80;21534;-68
2022/04/07 03:46:49;;;;;;;27.67;17.73;;;;;;;3.49;100.00;99021.67;1757002;80;21495;-68
2022/04/07 03:49:18;;;;;;;28.97;18.73;;;;;;;3.52;100.00;99013.84;1758343;80;21068;-67
2022/04/07 03:51:45;;;;;;;27.00;18.63;;;;;;;3.56;100.00;99009.39;1756641;80;21097;-67
2022/04/07 03:54:14;;;;;;;28.17;17.57;;;;;;;3.58;100.00;99005.23;1771724;80;21030;-68
2022/04/07 03:56:42;;;;;;;29.00;18.23;;;;;;;3.58;100.00;99003.39;1731024;82;21081;-66
2022/04/07 03:59:09;;;;;;;29.00;18.73;;;;;;;3.60;100.00;99002.73;1726083;82;21040;-67
2022/04/07 04:01:39;;;;;;;26.67;18.07;;;;;;;3.64;100.00;99011.80;1721413;81;21469;-68
2022/04/07 04:04:07;;;;;;;29.30;18.60;;;;;;;3.69;100.00;99006.84;1724203;82;21037;-67
2022/04/07 04:06:34;;;;;;;30.07;19.30;;;;;;;3.76;100.00;99002.05;1730320;82;21051;-68
2022/04/07 04:09:02;;;;;;;28.20;19.33;;;;;;;3.77;100.00;99003.75;1724271;82;21071;-66
2022/04/07 04:11:30;;;;;;;29.37;19.90;;;;;;;3.81;100.00;99005.62;1724272;82;21076;-68
2022/04/07 04:13:58;;;;;;;31.00;18.50;;;;;;;3.83;100.00;99002.28;1720637;82;21056;-68
2022/04/07 04:16:27;;;;;;;30.83;20.03;;;;;;;3.90;100.00;98980.63;1725067;82;21021;-67
2022/04/07 04:18:55;;;;;;;31.90;20.30;;;;;;;3.95;100.00;98968.13;1725426;82;21060;-67
2022/04/07 04:21:24;;;;;;;29.93;19.83;;;;;;;3.96;100.00;98958.59;1643006;85;21522;-69
2022/04/07 04:23:52;;;;;;;30.70;20.17;;;;;;;3.99;100.00;98960.13;1667193;84;21068;-69
2022/04/07 04:26:19;;;;;;;30.63;21.00;;;;;;;4.07;100.00;98964.69;1682257;85;21053;-68
2022/04/07 04:28:47;;;;;;;32.07;21.47;;;;;;;4.12;100.00;98961.05;1662121;85;21062;-67
2022/04/07 04:31:14;;;;;;;30.27;19.67;;;;;;;4.19;100.00;98959.43;1659089;85;21086;-67
2022/04/07 04:33:42;;;;;;;31.93;20.10;;;;;;;4.27;100.00;98951.47;1658283;84;21117;-68
2022/04/07 04:36:10;;;;;;;32.03;22.10;;;;;;;4.36;100.00;98958.55;1660435;85;21027;-67
2022/04/07 04:38:37;;;;;;;30.07;21.50;;;;;;;4.42;100.00;98946.88;1662997;84;21065;-67
2022/04/07 04:41:04;;;;;;;32.80;22.87;;;;;;;4.45;100.00;98948.73;1729948;82;21033;-67
2022/04/07 04:43:32;;;;;;;31.50;21.33;;;;;;;4.55;100.00;98937.42;1728914;82;21088;-67
2022/04/07 04:45:59;;;;;;;28.87;19.70;;;;;;;4.67;100.00;98935.78;1718958;82;21048;-68
2022/04/07 04:48:27;;;;;;;31.87;20.23;;;;;;;4.78;100.00;98925.29;1725041;82;20989;-68
2022/04/07 04:50:55;;;;;;;29.50;19.70;;;;;;;4.87;100.00;98931.01;1716237;82;21074;-68
2022/04/07 04:53:26;;;;;;;30.13;20.63;;;;;;;4.89;100.00;98927.19;1733978;81;21020;-67
2022/04/07 04:55:53;;;;;;;30.07;20.27;;;;;;;4.93;100.00;98925.02;1704295;83;21062;-67
2022/04/07 04:58:20;;;;;;;29.77;20.20;;;;;;;4.98;100.00;98923.20;1661470;83;21038;-69
2022/04/07 05:00:49;;;;;;;27.70;18.87;;;;;;;5.04;100.00;98920.69;1707725;83;21523;-67
2022/04/07 05:03:16;;;;;;;28.87;19.60;;;;;;;5.15;100.00;98920.89;1706953;83;21542;-68
2022/04/07 05:05:44;;;;;;;25.60;17.33;;;;;;;5.20;100.00;98914.53;1705370;83;21034;-68
2022/04/07 05:08:11;;;;;;;25.23;16.27;;;;;;;5.27;100.00;98918.23;1706729;83;21708;-67
2022/04/07 05:10:40;;;;;;;29.83;18.67;;;;;;;5.34;100.00;98910.37;1682412;84;21058;-69
2022/04/07 05:13:09;;;;;;;28.73;17.63;;;;;;;5.44;100.00;98906.22;1683316;83;21059;-69
2022/04/07 05:15:37;;;;;;;26.07;16.23;;;;;;;5.54;100.00;98902.85;1707515;83;21077;-68
2022/04/07 05:18:05;;;;;;;26.50;16.93;;;;;;;5.64;100.00;98908.90;1683387;84;21085;-68
2022/04/07 05:20:33;;;;;;;25.90;15.53;;;;;;;5.80;100.00;98905.89;1706756;83;21037;-68
2022/04/07 05:23:00;;;;;;;32.10;15.87;;;;;;;5.95;100.00;98906.90;1704930;84;21061;-67
2022/04/07 05:25:29;;;;;;;24.90;14.43;;;;;;;6.09;100.00;98908.06;1706494;83;21054;-70
2022/04/07 05:27:56;;;;;;;21.47;13.90;;;;;;;6.22;100.00;98906.22;1700460;83;21133;-69
2022/04/07 05:30:24;;;;;;;24.73;14.73;;;;;;;6.37;100.00;98910.37;1719526;82;21547;-69
2022/04/07 05:32:52;;;;;;;27.90;17.30;;;;;;;6.52;100.00;98915.38;1716703;82;21539;-69
2022/04/07 05:35:19;;;;;;;26.40;15.87;;;;;;;6.67;100.00;98928.91;1727958;83;21050;-69
2022/04/07 05:37:46;;;;;;;25.07;14.53;;;;;;;6.85;100.00;98932.70;1701496;82;21074;-69
2022/04/07 05:40:14;;;;;;;22.33;13.03;;;;;;;6.96;100.00;98952.49;1717445;82;21073;-69
2022/04/07 05:42:42;;;;;;;21.83;13.60;;;;;;;7.02;100.00;98973.80;1711849;83;21370;-69
2022/04/07 05:45:10;;;;;;;22.40;13.33;;;;;;;7.12;100.00;98991.05;1708088;83;21057;-68
2022/04/07 05:47:41;;;;;;;21.97;13.33;;;;;;;7.22;100.00;99023.45;1673131;84;20980;-69
2022/04/07 05:50:10;;;;;;;20.87;12.23;;;;;;;7.37;100.00;99052.30;1710522;83;21057;-68
2022/04/07 05:52:38;;;;;;;20.13;11.50;;;;;;;7.48;100.00;99078.80;1704015;83;21577;-69
2022/04/07 05:55:07;;;;;;;18.27;11.03;;;;;;;7.59;100.00;99112.03;1703471;83;21023;-69
2022/04/07 05:57:35;;;;;;;18.67;11.23;;;;;;;7.66;100.00;99159.27;1707930;82;21549;-68
2022/04/07 06:00:10;;;;;;;18.57;11.33;;;;;;;7.67;100.00;99202.66;1679043;83;21117;-67
2022/04/07 06:02:39;;;;;;;21.07;11.47;;;;;;;7.67;100.00;99252.45;1707207;82;21035;-67
2022/04/07 06:05:08;;;;;;;17.33;10.60;;;;;;;7.74;100.00;99279.00;1708471;83;21061;-67
2022/04/07 06:07:36;;;;;;;18.50;11.30;;;;;;;7.88;100.00;99303.52;1673055;83;21046;-68
2022/04/07 06:10:05;;;;;;;20.43;11.20;;;;;;;7.96;100.00;99321.01;1708531;83;21583;-69
2022/04/07 06:12:35;;;;;;;18.53;10.53;;;;;;;8.08;100.00;99344.38;1694498;83;21105;-68
2022/04/07 06:15:04;;;;;;;18.50;10.20;;;;;;;8.24;100.00;99356.96;1716865;82;21034;-72
2022/04/07 06:17:34;;;;;;;17.47;10.20;;;;;;;8.31;100.00;99363.34;1715581;82;21004;-68
2022/04/07 06:20:01;;;;;;;18.50;10.17;;;;;;;8.40;100.00;99387.05;1754392;80;20998;-68
2022/04/07 06:22:29;;;;;;;18.40;9.80;;;;;;;8.50;100.00;99402.03;1763620;80;21077;-68
2022/04/07 06:24:57;;;;;;;15.30;9.20;;;;;;;8.60;100.00;99408.55;1762910;80;21030;-68
2022/04/07 06:27:24;;;;;;;16.97;9.80;;;;;;;8.69;100.00;99431.79;1716942;82;21621;-70
2022/04/07 06:29:56;;;;;;;17.50;9.37;;;;;;;8.73;100.00;99439.02;1754777;80;21555;-70
2022/04/07 06:32:23;;;;;;;15.63;8.97;;;;;;;8.91;100.00;99456.31;1752319;80;21034;-69
2022/04/07 06:34:51;;;;;;;17.37;9.83;;;;;;;9.16;100.00;99452.16;1751164;80;21006;-68
2022/04/07 06:37:18;;;;;;;15.93;9.20;;;;;;;9.35;100.00;99461.64;1741130;80;21109;-69
2022/04/07 06:39:45;;;;;;;16.10;9.60;;;;;;;9.44;100.00;99464.13;1750191;80;21050;-69
2022/04/07 06:42:12;;;;;;;21.40;12.70;;;;;;;9.60;100.00;99466.41;1771718;80;21060;-68
2022/04/07 06:44:40;;;;;;;18.45;11.05;;;;;;;9.86;100.00;99464.19;1758298;80;21093;-68
2022/04/07 06:47:08;;;;;;;15.40;9.80;;;;;;;10.07;100.00;99477.02;1725217;80;21043;-67
2022/04/07 06:49:35;;;;;;;15.83;9.28;;;;;;;10.17;100.00;99490.27;1759118;80;21046;-68
2022/04/07 06:52:03;;;;;;;14.18;8.63;;;;;;;10.29;100.00;99509.59;1755452;80;21073;-67
2022/04/07 06:54:32;;;;;;;14.58;9.05;;;;;;;10.41;100.00;99508.66;1720905;82;21058;-68
2022/04/07 06:56:59;;;;;;;15.95;8.58;;;;;;;10.46;100.00;99519.77;1784603;79;21190;-67
2022/04/07 06:59:26;;;;;;;13.22;8.48;;;;;;;10.48;100.00;99524.47;1784667;79;21069;-68
2022/04/07 07:01:53;;;;;;;15.85;8.43;;;;;;;10.56;100.00;99545.20;1789022;79;21017;-68
2022/04/07 07:04:20;;;;;;;13.40;7.40;;;;;;;10.77;100.00;99545.84;1775594;79;21028;-69
2022/04/07 07:06:49;;;;;;;18.85;8.00;;;;;;;10.90;100.00;99560.91;1794501;79;21211;-69
2022/04/07 07:09:16;;;;;;;14.53;7.55;;;;;;;11.04;100.00;99567.88;1805653;79;21069;-67
2022/04/07 07:11:45;;;;;;;11.73;7.58;;;;;;;11.14;100.00;99567.94;1756154;79;21637;-68
2022/04/07 07:14:12;;;;;;;13.90;7.62;;;;;;;11.37;100.00;99571.89;1755385;79;21617;-68
2022/04/07 07:16:39;;;;;;;14.15;7.30;;;;;;;11.63;100.00;99577.31;1773935;79;21058;-68
2022/04/07 07:19:10;;;;;;;15.30;7.20;;;;;;;11.84;100.00;99588.71;1740171;79;21061;-69
2022/04/07 07:21:39;;;;;;;15.55;7.80;;;;;;;11.98;100.00;99604.64;1804445;79;21488;-69
2022/04/07 07:24:07;;;;;;;11.33;7.05;;;;;;;12.09;100.00;99604.66;1782089;79;21470;-68
2022/04/07 07:26:34;;;;;;;15.35;8.95;;;;;;;12.27;100.00;99609.15;1785788;79;21090;-67
2022/04/07 07:29:02;;;;;;;12.58;6.90;;;;;;;12.34;100.00;99611.91;1736295;79;21366;-66
2022/04/07 07:31:30;;;;;;;13.38;6.97;;;;;;;12.58;100.00;99616.11;1788561;79;21120;-69
2022/04/07 07:33:58;;;;;;;15.15;6.60;;;;;;;12.89;100.00;99632.54;1795386;79;21006;-69
2022/04/07 07:36:25;;;;;;;9.20;6.37;;;;;;;13.08;100.00;99640.03;1779462;79;21041;-71
2022/04/07 07:38:52;;;;;;;11.65;6.20;;;;;;;13.42;100.00;99629.41;1787677;79;20988;-69
2022/04/07 07:41:20;;;;;;;8.50;6.10;;;;;;;13.58;100.00;99646.76;1791443;79;21014;-68
2022/04/07 07:43:47;;;;;;;9.35;6.08;;;;;;;13.70;100.00;99648.37;1756686;80;21083;-71
2022/04/07 07:46:16;;;;;;;9.28;5.97;;;;;;;13.79;100.00;99658.55;1774464;79;21070;-69
2022/04/07 07:48:43;;;;;;;11.35;6.20;;;;;;;14.05;100.00;99670.91;1756323;79;21057;-69
2022/04/07 07:51:13;;;;;;;10.78;5.75;;;;;;;14.15;100.00;99677.34;1780504;79;21120;-68
2022/04/07 07:53:40;;;;;;;9.15;6.00;;;;;;;14.14;100.00;99678.37;1764969;80;21533;-67
2022/04/07 07:56:07;;;;;;;9.00;5.78;;;;;;;14.26;100.00;99693.59;1736654;81;21012;-67
2022/04/07 07:58:34;;;;;;;10.65;5.78;;;;;;;14.55;100.00;99733.21;1755720;81;21053;-69
2022/04/07 08:01:02;;;;;;;10.82;5.28;;;;;;;14.55;100.00;99733.21;1754627;81;21089;-67
2022/04/07 08:03:30;;;;;;;26.62;6.62;;;;;;;14.69;100.00;99735.48;1726433;81;21037;-68
2022/04/07 08:05:57;;;;;;;11.70;5.10;;;;;;;14.77;100.00;99726.31;1752908;81;20978;-68
2022/04/07 08:08:24;;;;;;;16.57;5.05;;;;;;;15.24;100.00;99731.80;1755790;81;21475;-68
2022/04/07 08:10:53;;;;;;;9.58;4.60;;;;;;;15.44;100.00;99717.66;1754946;81;21060;-66
2022/04/07 08:13:22;;;;;;;9.88;4.97;;;;;;;15.44;100.00;99717.66;1762591;80;20986;-68
2022/04/07 08:15:50;;;;;;;16.15;5.15;;;;;;;15.42;100.00;99728.44;1768925;80;21076;-67
2022/04/07 08:18:17;;;;;;;10.63;4.90;;;;;;;15.31;100.00;99725.30;1753575;80;21081;-69
2022/04/07 08:20:46;;;;;;;12.53;4.97;;;;;;;15.29;100.00;99721.95;1714696;81;21680;-68
2022/04/07 08:23:15;;;;;;;11.95;4.70;;;;;;;15.16;100.00;99716.52;1735270;80;20987;-68
2022/04/07 08:25:42;;;;;;;5.90;4.05;;;;;;;15.15;100.00;99720.27;1728365;80;21065;-68
2022/04/07 08:28:11;;;;;;;6.12;4.28;;;;;;;15.38;100.00;99700.25;1764202;80;21035;-70
2022/04/07 08:30:38;;;;;;;13.40;4.25;;;;;;;15.38;100.00;99700.25;1773767;80;21026;-68
2022/04/07 08:33:05;;;;;;;8.58;4.60;;;;;;;15.65;100.00;99705.70;1747407;80;21066;-66
2022/04/07 08:35:32;;;;;;;6.08;4.05;;;;;;;15.88;100.00;99696.22;1763146;80;21013;-70
2022/04/07 08:38:00;;;;;;;6.72;4.12;;;;;;;16.10;98.46;99688.07;1750253;80;21510;-69
2022/04/07 08:40:30;;;;;;;13.15;4.47;;;;;;;16.44;92.25;99677.83;1765543;80;21007;-68
2022/04/07 08:42:57;;;;;;;11.90;4.28;;;;;;;16.59;90.28;99680.29;1746463;80;21045;-68
2022/04/07 08:45:25;;;;;;;9.38;4.78;;;;;;;16.78;81.10;99677.64;1762681;80;22155;-68
2022/04/07 08:47:52;;;;;;;12.18;4.40;;;;;;;16.56;76.85;99666.24;1760631;80;21404;-69
2022/04/07 08:50:22;;;;;;;8.95;4.50;;;;;;;16.53;75.46;99676.23;1768038;80;21050;-67
2022/04/07 08:52:51;;;;;;;6.53;4.22;;;;;;;16.44;74.94;99666.09;1770726;80;20999;-70
2022/04/07 08:55:18;;;;;;;6.65;4.08;;;;;;;16.30;74.42;99668.88;1736658;79;21003;-70
2022/04/07 08:57:45;;;;;;;13.68;4.30;;;;;;;16.32;74.13;99672.75;1766282;80;21633;-66
2022/04/07 09:00:14;;;;;;;7.55;4.12;;;;;;;16.40;74.29;99661.59;1766090;80;21042;-71
2022/04/07 09:02:41;;;;;;;8.15;4.10;;;;;;;16.69;71.55;99658.78;1739135;80;22142;-68
2022/04/07 09:05:12;;;;;;;19.50;4.75;;;;;;;16.97;69.24;99660.84;1728403;81;21016;-68
2022/04/07 09:07:40;;;;;;;9.83;3.83;;;;;;;17.13;63.96;99650.72;1754243;80;21049;-68
2022/04/07 09:10:09;;;;;;;10.95;4.65;;;;;;;17.10;57.79;99655.79;1758613;80;21026;-67
2022/04/07 09:12:40;;;;;;;5.97;3.70;;;;;;;17.09;58.93;99641.30;1781997;80;21115;-67
2022/04/07 09:15:09;;;;;;;6.45;4.00;;;;;;;17.17;54.82;99638.81;1757205;80;21061;-67
2022/04/07 09:17:51;;;;;;;4.40;3.60;;;;;;;17.03;55.55;99644.41;1757813;80;21018;-68
2022/04/07 09:20:19;;;;;;;5.95;3.98;;;;;;;17.02;55.50;99631.80;1752506;80;20995;-70
2022/04/07 09:22:59;;;;;;;10.65;3.77;;;;;;;17.03;51.64;99622.55;1786075;79;21049;-68
2022/04/07 09:25:26;;;;;;;7.03;4.10;;;;;;;17.05;50.99;99637.33;1784549;79;21064;-68
2022/04/07 09:27:57;;;;;;;5.65;3.60;;;;;;;17.11;48.80;99620.59;1779716;80;21007;-69
2022/04/07 09:30:24;;;;;;;7.00;3.67;;;;;;;17.14;47.68;99611.42;1781755;80;21284;-69
2022/04/07 09:32:51;;;;;;;23.62;5.15;;;;;;;17.23;48.12;99607.33;1755974;80;21030;-66
2022/04/07 09:35:20;;;;;;;11.45;3.85;;;;;;;17.33;47.66;99605.44;1784402;80;21061;-67
2022/04/07 09:37:49;;;;;;;6.90;3.60;;;;;;;17.54;48.72;99591.86;1784072;80;21663;-68
2022/04/07 09:40:17;;;;;;;9.83;4.40;;;;;;;17.75;47.62;99590.56;1785286;80;21036;-64
2022/04/07 09:42:44;;;;;;;8.00;5.00;;;;;;;17.94;46.32;99599.63;1757319;80;21515;-67
2022/04/07 09:45:13;;;;;;;6.15;3.62;;;;;;;18.14;46.52;99580.74;1781330;80;21072;-65
2022/04/07 09:47:44;;;;;;;6.78;3.30;;;;;;;18.31;45.71;99572.70;1784041;79;21041;-64
2022/04/07 09:53:05;;;;;;;;;;;;;;;18.18;47.41;99576.47;1689806;84;21146;-67
2022/04/07 09:55:36;;;;;;;13.32;4.17;;;;;;;18.27;46.63;99570.95;1630041;85;20135;-65
2022/04/07 09:58:04;;;;;;;6.95;3.72;;;;;;;18.35;45.07;99567.91;1678019;83;21667;-67
2022/04/07 10:00:32;;;;;;;9.10;4.00;;;;;;;18.26;43.77;99576.69;1679676;84;21062;-66
2022/04/07 10:02:59;;;;;;;6.15;3.60;;;;;;;18.31;43.81;99550.80;1687958;84;21087;-67
2022/04/07 10:05:26;;;;;;;7.95;4.00;;;;;;;18.25;43.76;99544.36;1681307;84;21186;-67
2022/04/07 10:07:54;;;;;;;9.73;4.00;;;;;;;18.20;44.23;99549.19;1690583;84;21102;-67
2022/04/07 10:10:21;;;;;;;10.63;4.22;;;;;;;18.21;43.86;99550.02;1690893;84;21103;-66
2022/04/07 10:12:52;;;;;;;11.12;3.85;;;;;;;18.19;45.37;99536.56;1679846;84;21698;-66
2022/04/07 10:15:19;;;;;;;7.92;3.80;;;;;;;18.57;44.80;99538.09;1680677;84;21150;-65
2022/04/07 10:17:46;;;;;;;4.35;3.42;;;;;;;18.82;43.34;99540.33;1672836;84;21127;-66
2022/04/07 10:20:18;;;;;;;8.03;3.98;;;;;;;19.00;42.54;99524.31;1651229;84;21110;-68
2022/04/07 10:23:39;;;;;;;11.38;4.37;;;;;;;18.88;42.58;99523.78;1645712;86;21367;-66
2022/04/07 10:26:08;;;;;;;11.45;4.87;;;;;;;18.69;43.29;99542.73;1658260;86;21104;-64
2022/04/07 10:28:36;;;;;;;8.00;4.10;;;;;;;18.59;43.99;99516.78;1648821;85;21091;-65
2022/04/07 10:31:14;;;;;;;8.78;3.70;;;;;;;18.83;44.38;99520.92;1652607;85;21046;-69
2022/04/07 10:33:47;;;;;;;6.90;3.70;;;;;;;19.07;42.65;99519.02;1652860;85;21094;-65
2022/04/07 10:36:16;;;;;;;9.05;4.00;;;;;;;19.12;41.29;99513.66;1655750;85;21073;-73
2022/04/07 10:38:51;;;;;;;6.85;3.50;;;;;;;18.96;41.92;99507.52;1654472;85;21147;-66
2022/04/07 10:41:43;;;;;;;6.17;3.70;;;;;;;18.81;43.38;99514.00;1640946;86;21118;-66
2022/04/07 10:44:15;;;;;;;9.48;4.15;;;;;;;18.84;44.67;99498.47;1664789;83;21079;-68
2022/04/07 10:46:43;;;;;;;9.83;4.20;;;;;;;18.71;42.92;99502.25;1683490;84;21619;-67
2022/04/07 10:49:14;;;;;;;11.65;4.47;;;;;;;18.86;44.30;99493.06;1719204;80;21128;-67
2022/04/07 10:51:52;;;;;;;11.12;4.53;;;;;;;19.12;43.87;99499.10;1755081;80;21060;-67
2022/04/07 10:54:19;;;;;;;9.03;4.80;;;;;;;19.18;42.21;99492.67;1684758;83;21038;-66
2022/04/07 10:56:55;;;;;;;8.48;3.80;;;;;;;19.09;42.73;99492.76;1699704;83;21053;-67
2022/04/07 10:59:34;;;;;;;5.72;3.35;;;;;;;19.00;43.56;99482.70;1672572;84;21063;-67
2022/04/07 11:02:04;;;;;;;8.50;4.08;;;;;;;18.76;42.71;99481.84;1729099;82;21081;-68
2022/04/07 11:04:51;;;;;;;7.17;3.70;;;;;;;18.67;44.58;99470.95;1691329;84;21111;-69
2022/04/07 11:07:18;;;;;;;6.28;3.35;;;;;;;18.69;44.64;99467.44;1691439;83;21164;-68
2022/04/07 11:10:02;;;;;;;9.40;3.90;;;;;;;18.57;46.00;99466.05;1696762;82;21621;-68
2022/04/07 11:12:43;;;;;;;;;;;;;;;18.67;48.59;99464.93;1705820;82;21004;-69
2022/04/07 11:15:20;;;;;;;8.15;3.70;;;;;;;18.88;48.73;99458.05;1704663;83;20179;-69
2022/04/07 11:17:50;;;;;;;11.18;3.85;;;;;;;18.90;49.05;99453.16;1707090;83;21497;-69
2022/04/07 11:20:21;;;;;;;10.35;3.90;;;;;;;19.07;48.43;99434.08;1662906;84;21063;-69
2022/04/07 11:22:51;;;;;;;9.10;3.67;;;;;;;19.28;50.10;99439.97;1679313;83;21180;-68
2022/04/07 11:25:31;;;;;;;8.65;4.05;;;;;;;19.45;48.49;99437.30;1703283;83;21040;-68
2022/04/07 11:28:11;;;;;;;10.23;4.20;;;;;;;19.51;49.23;99421.23;1700630;83;21052;-68
2022/04/07 11:30:47;;;;;;;9.10;4.00;;;;;;;19.64;49.57;99431.09;1702807;83;21517;-67
2022/04/07 11:33:26;;;;;;;7.62;4.42;;;;;;;19.86;48.70;99419.72;1695119;83;21077;-66